Time;durP1;ratioP1;P1;durP2;ratioP2;P2;SDS_P1;SDS_P2;PMS_P1;PMS_P2;Temp;Humidity;BMP_temperature;BMP_pressure;BME280_temperature;BME280_humidity;BME280_pressure;Samples;Min_cycle;Max_cycle;Signal;HPM_P1;HPM_P2
2021/12/09 00:01:34;;;;;;;6.67;4.80;;;;;;;;;;5028171;28;20466;-73
2021/12/09 00:04:02;;;;;;;8.63;4.43;;;;;;;;;;5029183;28;20494;-76
2021/12/09 00:06:29;;;;;;;8.77;5.40;;;;;;;;;;5032779;28;20442;-74
2021/12/09 00:08:56;;;;;;;6.73;4.40;;;;;;;;;;5029494;28;20430;-75
2021/12/09 00:11:22;;;;;;;5.60;4.50;;;;;;;;;;5026707;28;20461;-74
2021/12/09 00:13:48;;;;;;;6.10;4.50;;;;;;;;;;5027601;28;20985;-74
2021/12/09 00:16:13;;;;;;;9.83;4.67;;;;;;;;;;5024429;28;20211;-74
2021/12/09 00:18:39;;;;;;;8.50;5.17;;;;;;;;;;5029954;28;20493;-74
2021/12/09 00:21:04;;;;;;;8.00;4.53;;;;;;;;;;5022645;28;20262;-74
2021/12/09 00:23:30;;;;;;;10.40;5.07;;;;;;;;;;5025022;28;20192;-72
2021/12/09 00:25:55;;;;;;;5.40;4.77;;;;;;;;;;5026909;28;20183;-74
2021/12/09 00:28:20;;;;;;;9.10;5.07;;;;;;;;;;5029532;28;20237;-72
2021/12/09 00:30:46;;;;;;;5.27;4.50;;;;;;;;;;5027525;28;20231;-72
2021/12/09 00:33:11;;;;;;;5.80;4.67;;;;;;;;;;5036259;28;20187;-72
2021/12/09 00:38:37;;;;;;;7.20;4.40;;;;;;;;;;5019952;28;20204;-72
2021/12/09 00:41:04;;;;;;;7.03;4.97;;;;;;;;;;5029680;28;20519;-72
2021/12/09 00:43:30;;;;;;;7.50;4.97;;;;;;;;;;5025146;28;20457;-72
2021/12/09 00:45:57;;;;;;;8.60;5.40;;;;;;;;;;5023637;28;20974;-74
2021/12/09 00:48:22;;;;;;;8.43;6.30;;;;;;;;;;5027939;28;20606;-72
2021/12/09 00:50:48;;;;;;;7.70;4.60;;;;;;;;;;5042864;28;20438;-73
2021/12/09 00:53:13;;;;;;;7.03;5.10;;;;;;;;;;5024284;28;20216;-73
2021/12/09 00:55:39;;;;;;;7.70;5.47;;;;;;;;;;5023874;28;20184;-73
2021/12/09 00:58:04;;;;;;;10.83;5.40;;;;;;;;;;5026815;28;20327;-73
2021/12/09 01:00:33;;;;;;;6.13;4.83;;;;;;;;;;5023084;28;20204;-74
2021/12/09 01:02:58;;;;;;;8.07;5.10;;;;;;;;;;5027975;28;20190;-73
2021/12/09 01:05:24;;;;;;;8.40;4.30;;;;;;;;;;5027437;28;20442;-72
2021/12/09 01:07:50;;;;;;;7.37;4.73;;;;;;;;;;5031712;28;21282;-73
2021/12/09 01:10:15;;;;;;;9.20;4.63;;;;;;;;;;5023056;28;20212;-73
2021/12/09 01:12:41;;;;;;;9.77;4.67;;;;;;;;;;5026977;28;20359;-73
2021/12/09 01:15:07;;;;;;;10.53;5.50;;;;;;;;;;5027001;28;20232;-73
2021/12/09 01:17:33;;;;;;;8.20;5.60;;;;;;;;;;5026054;28;20302;-73
2021/12/09 01:19:59;;;;;;;10.13;4.80;;;;;;;;;;5021353;28;21738;-73
2021/12/09 01:22:33;;;;;;;7.40;4.93;;;;;;;;;;5025207;28;20192;-72
2021/12/09 01:24:58;;;;;;;7.53;5.10;;;;;;;;;;5020390;28;20454;-72
2021/12/09 01:27:23;;;;;;;6.13;5.10;;;;;;;;;;5027007;28;26419;-72
2021/12/09 01:29:53;;;;;;;12.03;5.27;;;;;;;;;;5046607;28;20705;-73
2021/12/09 01:32:25;;;;;;;10.03;5.70;;;;;;;;;;5026434;28;20188;-73
2021/12/09 01:34:51;;;;;;;6.83;5.37;;;;;;;;;;5029232;28;20455;-73
2021/12/09 01:37:16;;;;;;;12.17;5.57;;;;;;;;;;5026989;28;20457;-73
2021/12/09 01:39:41;;;;;;;5.83;5.17;;;;;;;;;;5034751;28;20274;-72
2021/12/09 01:42:07;;;;;;;7.93;5.80;;;;;;;;;;5030295;28;20183;-72
2021/12/09 01:44:35;;;;;;;7.37;5.40;;;;;;;;;;5031795;28;20836;-73
2021/12/09 01:47:01;;;;;;;8.23;4.63;;;;;;;;;;5030639;28;20276;-75
2021/12/09 01:49:26;;;;;;;6.00;4.80;;;;;;;;;;5029017;28;20568;-74
2021/12/09 01:51:52;;;;;;;7.53;5.57;;;;;;;;;;5028659;28;20683;-74
2021/12/09 01:54:17;;;;;;;7.17;5.20;;;;;;;;;;5029521;28;20207;-73
2021/12/09 01:56:43;;;;;;;8.27;6.13;;;;;;;;;;5029269;28;20450;-73
2021/12/09 01:59:09;;;;;;;7.90;5.30;;;;;;;;;;5031065;28;20190;-73
2021/12/09 02:01:35;;;;;;;7.50;5.37;;;;;;;;;;5028242;28;20759;-72
2021/12/09 02:04:01;;;;;;;8.80;5.60;;;;;;;;;;5022657;28;20259;-73
2021/12/09 02:06:27;;;;;;;6.80;4.80;;;;;;;;;;5029949;28;20431;-74
2021/12/09 02:08:53;;;;;;;9.27;5.83;;;;;;;;;;5031127;28;20850;-72
2021/12/09 02:11:21;;;;;;;6.77;5.00;;;;;;;;;;5026897;28;20431;-73
2021/12/09 02:13:50;;;;;;;6.20;4.83;;;;;;;;;;5025007;28;20204;-74
2021/12/09 02:16:15;;;;;;;6.27;4.97;;;;;;;;;;5028333;28;20434;-74
2021/12/09 02:18:40;;;;;;;7.40;5.47;;;;;;;;;;5031563;28;20937;-74
2021/12/09 02:21:15;;;;;;;8.47;5.93;;;;;;;;;;5023496;28;20212;-74
2021/12/09 02:23:46;;;;;;;8.37;5.40;;;;;;;;;;5025587;28;20684;-74
2021/12/09 02:26:11;;;;;;;8.03;5.10;;;;;;;;;;5026247;28;20427;-74
2021/12/09 02:28:37;;;;;;;9.50;5.50;;;;;;;;;;5023272;28;20967;-74
2021/12/09 02:31:03;;;;;;;7.30;4.60;;;;;;;;;;5040704;28;24340;-76
2021/12/09 02:33:28;;;;;;;8.80;5.60;;;;;;;;;;5029283;28;20211;-75
2021/12/09 02:35:53;;;;;;;7.20;5.17;;;;;;;;;;5018463;28;20195;-76
2021/12/09 02:38:19;;;;;;;8.60;5.63;;;;;;;;;;5029234;28;20187;-74
2021/12/09 02:40:48;;;;;;;10.60;5.20;;;;;;;;;;5029295;28;20205;-74
2021/12/09 02:43:14;;;;;;;7.60;4.70;;;;;;;;;;5029486;28;20270;-74
2021/12/09 02:45:41;;;;;;;10.90;5.37;;;;;;;;;;5024906;28;20442;-74
2021/12/09 02:48:07;;;;;;;10.00;5.93;;;;;;;;;;5020811;28;20180;-75
2021/12/09 02:50:32;;;;;;;9.10;5.60;;;;;;;;;;5027670;28;20430;-73
2021/12/09 02:52:57;;;;;;;14.43;5.17;;;;;;;;;;5029359;28;20195;-72
2021/12/09 02:55:23;;;;;;;7.60;4.97;;;;;;;;;;5029653;28;20267;-72
2021/12/09 02:57:50;;;;;;;8.37;5.77;;;;;;;;;;5027440;28;20187;-72
2021/12/09 03:00:16;;;;;;;7.50;5.90;;;;;;;;;;5026102;28;20211;-71
2021/12/09 03:02:44;;;;;;;9.43;5.17;;;;;;;;;;5028135;28;20435;-71
2021/12/09 03:05:10;;;;;;;7.53;5.60;;;;;;;;;;5028259;28;20207;-72
2021/12/09 03:07:39;;;;;;;7.00;5.40;;;;;;;;;;5027490;28;20427;-72
2021/12/09 03:10:17;;;;;;;8.47;5.40;;;;;;;;;;5041785;28;20191;-73
2021/12/09 03:12:42;;;;;;;6.50;5.27;;;;;;;;;;5031716;28;20431;-73
2021/12/09 03:15:08;;;;;;;12.30;6.20;;;;;;;;;;5031616;28;20479;-74
2021/12/09 03:17:37;;;;;;;6.87;5.47;;;;;;;;;;5025724;28;20200;-73
2021/12/09 03:20:03;;;;;;;10.77;5.57;;;;;;;;;;5048962;28;20201;-73
2021/12/09 03:22:29;;;;;;;9.53;6.40;;;;;;;;;;5029663;28;20462;-72
2021/12/09 03:24:54;;;;;;;11.83;6.37;;;;;;;;;;5027695;28;20477;-72
2021/12/09 03:27:19;;;;;;;7.03;6.00;;;;;;;;;;5031513;28;20218;-73
2021/12/09 03:29:45;;;;;;;9.50;5.77;;;;;;;;;;5031739;28;20172;-73
2021/12/09 03:32:12;;;;;;;6.70;6.00;;;;;;;;;;5029214;28;20196;-72
2021/12/09 03:34:38;;;;;;;8.40;6.60;;;;;;;;;;5031276;28;20196;-74
2021/12/09 03:37:06;;;;;;;7.27;5.00;;;;;;;;;;5032028;28;20465;-75
2021/12/09 03:39:33;;;;;;;8.17;6.20;;;;;;;;;;5031441;28;20454;-73
2021/12/09 03:41:58;;;;;;;8.93;5.43;;;;;;;;;;5027172;28;21265;-73
2021/12/09 03:44:23;;;;;;;8.50;5.60;;;;;;;;;;5031196;28;21399;-75
2021/12/09 03:46:50;;;;;;;11.33;6.27;;;;;;;;;;5030052;28;20184;-73
2021/12/09 03:49:15;;;;;;;6.37;5.03;;;;;;;;;;5030636;28;20188;-73
2021/12/09 03:51:41;;;;;;;10.47;6.40;;;;;;;;;;5026538;28;21460;-74
2021/12/09 03:54:07;;;;;;;10.93;6.60;;;;;;;;;;5030076;28;20283;-74
2021/12/09 03:56:33;;;;;;;7.30;5.80;;;;;;;;;;5030567;28;20176;-73
2021/12/09 03:58:58;;;;;;;9.07;5.77;;;;;;;;;;5024793;28;20454;-74
2021/12/09 04:01:23;;;;;;;8.50;5.90;;;;;;;;;;5024552;28;20505;-74
2021/12/09 04:03:49;;;;;;;10.27;6.20;;;;;;;;;;5027807;28;20208;-74
2021/12/09 04:06:14;;;;;;;9.07;5.00;;;;;;;;;;5029866;28;20180;-73
2021/12/09 04:08:39;;;;;;;7.17;5.63;;;;;;;;;;5033857;28;20180;-74
2021/12/09 04:11:05;;;;;;;9.47;5.33;;;;;;;;;;5029228;28;20183;-74
2021/12/09 04:13:32;;;;;;;8.10;5.80;;;;;;;;;;5027462;28;20286;-75
2021/12/09 04:15:58;;;;;;;6.27;5.57;;;;;;;;;;5028835;28;20177;-74
2021/12/09 04:18:23;;;;;;;10.70;5.83;;;;;;;;;;5028718;28;20431;-74
2021/12/09 04:20:49;;;;;;;12.30;6.87;;;;;;;;;;5025598;28;20195;-74
2021/12/09 04:23:14;;;;;;;10.07;6.07;;;;;;;;;;5026645;28;20259;-73
2021/12/09 04:25:40;;;;;;;19.77;7.07;;;;;;;;;;5033771;28;20591;-73
2021/12/09 04:28:05;;;;;;;8.87;6.10;;;;;;;;;;5025572;28;20184;-74
2021/12/09 04:30:32;;;;;;;10.17;6.00;;;;;;;;;;5028502;28;20180;-75
2021/12/09 04:32:58;;;;;;;10.67;6.30;;;;;;;;;;5028788;28;20188;-72
2021/12/09 04:35:23;;;;;;;8.13;6.20;;;;;;;;;;5023297;28;20470;-73
2021/12/09 04:37:48;;;;;;;8.23;6.20;;;;;;;;;;5027019;28;20176;-73
2021/12/09 04:40:15;;;;;;;7.57;6.00;;;;;;;;;;5029585;28;20396;-73
2021/12/09 04:42:40;;;;;;;12.40;6.07;;;;;;;;;;5028849;28;20172;-73
2021/12/09 04:45:06;;;;;;;10.50;6.13;;;;;;;;;;5026875;28;20465;-73
2021/12/09 04:47:31;;;;;;;9.90;6.97;;;;;;;;;;5028075;28;20785;-73
2021/12/09 04:49:57;;;;;;;11.50;7.07;;;;;;;;;;5028980;28;20181;-72
2021/12/09 04:52:22;;;;;;;9.50;6.30;;;;;;;;;;5025475;28;20190;-73
2021/12/09 04:54:47;;;;;;;7.00;5.47;;;;;;;;;;5028940;28;20723;-75
2021/12/09 04:57:13;;;;;;;9.67;6.07;;;;;;;;;;5028820;28;20213;-74
2021/12/09 04:59:39;;;;;;;7.80;6.20;;;;;;;;;;5025012;28;20188;-73
2021/12/09 05:02:08;;;;;;;9.67;5.40;;;;;;;;;;5026207;28;20180;-73
2021/12/09 05:04:33;;;;;;;12.47;5.70;;;;;;;;;;5028601;28;20240;-76
2021/12/09 05:06:59;;;;;;;10.50;5.83;;;;;;;;;;5028597;28;20534;-73
2021/12/09 05:09:25;;;;;;;9.27;5.60;;;;;;;;;;5030223;28;20186;-74
2021/12/09 05:11:50;;;;;;;8.97;5.20;;;;;;;;;;5031041;28;20287;-72
2021/12/09 05:14:16;;;;;;;11.87;6.70;;;;;;;;;;5031511;28;21046;-74
2021/12/09 05:16:43;;;;;;;8.13;5.80;;;;;;;;;;5030775;28;20188;-73
2021/12/09 05:19:08;;;;;;;10.93;6.67;;;;;;;;;;5032272;28;20908;-75
2021/12/09 05:21:37;;;;;;;11.20;5.63;;;;;;;;;;5027015;28;20554;-74
2021/12/09 05:24:04;;;;;;;8.30;6.50;;;;;;;;;;5028889;28;20218;-74
2021/12/09 05:26:36;;;;;;;7.60;6.00;;;;;;;;;;5027129;28;20442;-74
2021/12/09 05:29:01;;;;;;;9.40;5.80;;;;;;;;;;5023943;28;20434;-73
2021/12/09 05:34:11;;;;;;;11.63;6.40;;;;;;;;;;5027849;28;20269;-73
2021/12/09 05:36:37;;;;;;;10.47;6.53;;;;;;;;;;5028693;28;20441;-72
2021/12/09 05:39:03;;;;;;;7.67;6.00;;;;;;;;;;5026096;28;20176;-73
2021/12/09 05:41:29;;;;;;;7.30;5.67;;;;;;;;;;5026275;28;20204;-74
2021/12/09 05:43:54;;;;;;;10.20;5.87;;;;;;;;;;5025942;28;20750;-72
2021/12/09 05:46:22;;;;;;;9.50;6.40;;;;;;;;;;5024657;28;20374;-75
2021/12/09 05:48:47;;;;;;;9.57;6.87;;;;;;;;;;5025803;28;20234;-73
2021/12/09 05:51:13;;;;;;;8.73;6.20;;;;;;;;;;5025626;28;20861;-74
2021/12/09 05:53:38;;;;;;;11.07;6.30;;;;;;;;;;5026992;28;20321;-74
2021/12/09 05:56:03;;;;;;;10.07;6.80;;;;;;;;;;5025426;28;20275;-74
2021/12/09 05:58:29;;;;;;;7.93;6.37;;;;;;;;;;5026235;28;20179;-74
2021/12/09 06:00:54;;;;;;;7.53;6.17;;;;;;;;;;5027004;28;20203;-75
2021/12/09 06:03:20;;;;;;;11.00;6.27;;;;;;;;;;5023242;28;20244;-74
2021/12/09 06:05:46;;;;;;;7.30;6.60;;;;;;;;;;5026195;28;20185;-72
2021/12/09 06:08:14;;;;;;;10.80;6.63;;;;;;;;;;5040770;28;20485;-76
2021/12/09 06:10:39;;;;;;;8.80;6.27;;;;;;;;;;5017235;28;20180;-77
2021/12/09 06:13:05;;;;;;;12.10;6.80;;;;;;;;;;5027021;28;20439;-77
2021/12/09 06:15:30;;;;;;;7.47;6.20;;;;;;;;;;5025920;28;20193;-74
2021/12/09 06:17:56;;;;;;;8.20;6.17;;;;;;;;;;5020579;28;20172;-73
2021/12/09 06:20:21;;;;;;;8.80;6.87;;;;;;;;;;5026183;28;20571;-73
2021/12/09 06:22:46;;;;;;;9.37;7.47;;;;;;;;;;5029655;28;20186;-74
2021/12/09 06:25:17;;;;;;;8.63;6.77;;;;;;;;;;5025034;28;20672;-72
2021/12/09 06:27:43;;;;;;;10.47;7.27;;;;;;;;;;5018745;28;20183;-73
2021/12/09 06:30:08;;;;;;;9.40;6.50;;;;;;;;;;5025552;28;20422;-74
2021/12/09 06:32:33;;;;;;;8.97;6.57;;;;;;;;;;5027295;28;20184;-75
2021/12/09 06:34:59;;;;;;;8.90;6.50;;;;;;;;;;5023809;28;20259;-74
2021/12/09 06:37:24;;;;;;;10.40;7.97;;;;;;;;;;5026707;28;20179;-73
2021/12/09 06:39:49;;;;;;;10.47;7.07;;;;;;;;;;5030083;28;20176;-74
2021/12/09 06:42:16;;;;;;;10.90;6.60;;;;;;;;;;5029626;28;20176;-74
2021/12/09 06:44:42;;;;;;;9.13;6.93;;;;;;;;;;5024269;28;20208;-72
2021/12/09 06:47:07;;;;;;;10.10;7.20;;;;;;;;;;5027684;28;20445;-74
2021/12/09 06:49:32;;;;;;;8.90;7.00;;;;;;;;;;5028568;28;20183;-74
2021/12/09 06:51:57;;;;;;;11.03;7.50;;;;;;;;;;5031811;28;20188;-72
2021/12/09 06:54:23;;;;;;;11.10;7.70;;;;;;;;;;5033097;28;20847;-73
2021/12/09 06:56:48;;;;;;;10.50;6.77;;;;;;;;;;5025718;28;21808;-74
2021/12/09 06:59:13;;;;;;;11.60;6.77;;;;;;;;;;5024778;28;26266;-73
2021/12/09 07:01:39;;;;;;;17.00;6.50;;;;;;;;;;5021816;28;20583;-75
2021/12/09 07:04:04;;;;;;;11.10;7.67;;;;;;;;;;5028574;28;20215;-73
2021/12/09 07:06:29;;;;;;;10.20;6.70;;;;;;;;;;5029208;28;20177;-73
2021/12/09 07:08:59;;;;;;;10.13;7.00;;;;;;;;;;5030774;28;20184;-73
2021/12/09 07:11:28;;;;;;;14.90;8.10;;;;;;;;;;5031742;28;20679;-74
2021/12/09 07:13:54;;;;;;;10.50;6.90;;;;;;;;;;5021639;28;20573;-74
2021/12/09 07:16:20;;;;;;;10.80;7.23;;;;;;;;;;5024491;28;20461;-74
2021/12/09 07:18:45;;;;;;;13.47;7.60;;;;;;;;;;5026703;28;20454;-74
2021/12/09 07:21:11;;;;;;;8.23;6.77;;;;;;;;;;5027649;28;20211;-74
2021/12/09 07:23:36;;;;;;;9.77;7.30;;;;;;;;;;5030884;28;20262;-74
2021/12/09 07:26:02;;;;;;;12.40;7.30;;;;;;;;;;5030424;28;20188;-74
2021/12/09 07:28:28;;;;;;;15.43;7.60;;;;;;;;;;5032985;28;20169;-72
2021/12/09 07:30:53;;;;;;;11.93;7.10;;;;;;;;;;5031181;28;20958;-75
2021/12/09 07:33:18;;;;;;;11.40;7.90;;;;;;;;;;5022993;28;21560;-74
2021/12/09 07:35:43;;;;;;;9.30;7.10;;;;;;;;;;5033143;28;20856;-73
2021/12/09 07:38:09;;;;;;;11.90;6.93;;;;;;;;;;5033525;28;20187;-73
2021/12/09 07:40:36;;;;;;;15.23;7.30;;;;;;;;;;5029771;28;20212;-73
2021/12/09 07:43:02;;;;;;;13.77;8.00;;;;;;;;;;5019749;28;20442;-73
2021/12/09 07:45:27;;;;;;;10.47;6.60;;;;;;;;;;5027353;28;20477;-73
2021/12/09 07:47:52;;;;;;;8.13;6.50;;;;;;;;;;5030145;28;20181;-73
2021/12/09 07:50:19;;;;;;;11.63;7.90;;;;;;;;;;5029600;28;20183;-73
2021/12/09 07:52:47;;;;;;;11.90;8.00;;;;;;;;;;5026765;28;20188;-74
2021/12/09 07:55:13;;;;;;;10.60;7.10;;;;;;;;;;5029267;28;20476;-72
2021/12/09 07:57:38;;;;;;;12.10;7.70;;;;;;;;;;5028603;28;20445;-73
2021/12/09 08:00:11;;;;;;;11.87;7.70;;;;;;;;;;5024646;28;20211;-74
2021/12/09 08:02:36;;;;;;;10.73;6.97;;;;;;;;;;5024896;28;20176;-74
2021/12/09 08:05:02;;;;;;;9.07;6.40;;;;;;;;;;5025930;28;20465;-75
2021/12/09 08:07:28;;;;;;;11.20;7.60;;;;;;;;;;5027235;28;20315;-74
2021/12/09 08:09:53;;;;;;;10.97;7.30;;;;;;;;;;5029350;28;20922;-75
2021/12/09 08:12:18;;;;;;;9.90;6.83;;;;;;;;;;5023753;28;20212;-75
2021/12/09 08:14:43;;;;;;;9.53;6.07;;;;;;;;;;5028010;28;20195;-73
2021/12/09 08:17:23;;;;;;;18.47;9.17;;;;;;;;;;5019534;28;20246;-74
2021/12/09 08:19:49;;;;;;;13.97;6.97;;;;;;;;;;5025800;28;20689;-75
2021/12/09 08:22:15;;;;;;;9.53;6.40;;;;;;;;;;5030077;28;20444;-74
2021/12/09 08:24:41;;;;;;;8.70;6.63;;;;;;;;;;5031707;28;20446;-75
2021/12/09 08:27:06;;;;;;;14.20;7.13;;;;;;;;;;5028662;28;20466;-74
2021/12/09 08:29:31;;;;;;;16.47;7.80;;;;;;;;;;5027145;28;21098;-72
2021/12/09 08:31:56;;;;;;;8.77;6.20;;;;;;;;;;5024900;28;20192;-73
2021/12/09 08:34:22;;;;;;;11.70;7.13;;;;;;;;;;5038771;28;20240;-74
2021/12/09 08:36:47;;;;;;;8.50;6.20;;;;;;;;;;5043638;28;20649;-74
2021/12/09 08:39:13;;;;;;;9.83;6.40;;;;;;;;;;5023017;28;20207;-74
2021/12/09 08:41:39;;;;;;;11.83;7.03;;;;;;;;;;5026432;28;20208;-74
2021/12/09 08:44:06;;;;;;;10.73;6.80;;;;;;;;;;5026428;28;20203;-75
2021/12/09 08:46:32;;;;;;;11.63;6.60;;;;;;;;;;5027921;28;20432;-74
2021/12/09 08:48:57;;;;;;;10.87;7.03;;;;;;;;;;5027597;28;20435;-73
2021/12/09 08:51:22;;;;;;;11.20;6.43;;;;;;;;;;5020727;28;20216;-73
2021/12/09 08:53:48;;;;;;;11.17;7.17;;;;;;;;;;5027566;28;20207;-74
2021/12/09 08:56:13;;;;;;;9.90;6.27;;;;;;;;;;5028571;28;20194;-73
2021/12/09 08:58:38;;;;;;;12.43;7.97;;;;;;;;;;5025389;28;20190;-73
2021/12/09 09:01:04;;;;;;;11.57;6.67;;;;;;;;;;5028854;28;20210;-73
2021/12/09 09:03:30;;;;;;;11.13;7.00;;;;;;;;;;5027769;28;20215;-72
2021/12/09 09:05:55;;;;;;;9.30;7.20;;;;;;;;;;5026195;28;20823;-73
2021/12/09 09:08:20;;;;;;;11.63;7.30;;;;;;;;;;5027856;28;20229;-73
2021/12/09 09:10:46;;;;;;;8.20;6.00;;;;;;;;;;5030679;28;20278;-73
2021/12/09 09:13:12;;;;;;;9.17;6.77;;;;;;;;;;5034317;28;20564;-74
2021/12/09 09:15:41;;;;;;;8.83;6.73;;;;;;;;;;5033919;28;20184;-74
2021/12/09 09:18:07;;;;;;;13.20;7.30;;;;;;;;;;5024914;28;20444;-73
2021/12/09 09:20:34;;;;;;;9.47;6.23;;;;;;;;;;5028021;28;20454;-73
2021/12/09 09:23:00;;;;;;;11.33;6.73;;;;;;;;;;5031614;28;20723;-73
2021/12/09 09:25:29;;;;;;;11.80;6.67;;;;;;;;;;5029885;28;20445;-73
2021/12/09 09:27:55;;;;;;;12.60;7.83;;;;;;;;;;5029766;28;20674;-73
2021/12/09 09:30:21;;;;;;;9.83;7.30;;;;;;;;;;5037291;28;20435;-74
2021/12/09 09:32:50;;;;;;;10.00;7.07;;;;;;;;;;5026245;28;20441;-72
2021/12/09 09:35:16;;;;;;;10.20;6.40;;;;;;;;;;5029958;28;20195;-74
2021/12/09 09:37:41;;;;;;;10.07;5.70;;;;;;;;;;5025990;28;20446;-72
2021/12/09 09:40:09;;;;;;;12.60;7.13;;;;;;;;;;5031984;28;20841;-73
2021/12/09 09:42:56;;;;;;;12.47;6.37;;;;;;;;;;5025749;28;20188;-73
2021/12/09 09:45:19;;;;;;;9.30;6.60;;;;;;;;;;5029895;28;20462;-73
2021/12/09 09:47:45;;;;;;;17.03;7.23;;;;;;;;;;5027329;28;20457;-72
2021/12/09 09:50:11;;;;;;;11.30;6.90;;;;;;;;;;5025942;28;20180;-73
2021/12/09 09:52:36;;;;;;;9.60;7.00;;;;;;;;;;5026846;28;20196;-73
2021/12/09 09:55:05;;;;;;;13.00;6.90;;;;;;;;;;5031907;28;20453;-73
2021/12/09 09:57:30;;;;;;;14.30;7.50;;;;;;;;;;5029281;28;20184;-72
2021/12/09 09:59:56;;;;;;;12.47;7.47;;;;;;;;;;5028245;28;20445;-72
2021/12/09 10:02:21;;;;;;;12.57;7.17;;;;;;;;;;5027070;28;20179;-73
2021/12/09 10:04:59;;;;;;;10.70;7.03;;;;;;;;;;5027746;28;20292;-74
2021/12/09 10:07:24;;;;;;;11.70;6.70;;;;;;;;;;5028479;28;21229;-73
2021/12/09 10:09:50;;;;;;;12.37;6.73;;;;;;;;;;5031604;28;20427;-72
2021/12/09 10:12:16;;;;;;;10.70;6.63;;;;;;;;;;5033997;28;20195;-76
2021/12/09 10:14:45;;;;;;;8.03;6.30;;;;;;;;;;5024540;28;20513;-73
2021/12/09 10:17:18;;;;;;;10.47;6.63;;;;;;;;;;5028250;28;20194;-72
2021/12/09 10:19:46;;;;;;;9.77;6.20;;;;;;;;;;5027452;28;20541;-72
2021/12/09 10:22:16;;;;;;;7.57;5.93;;;;;;;;;;5032596;28;20470;-74
2021/12/09 10:24:42;;;;;;;11.13;6.63;;;;;;;;;;5029607;28;20475;-72
2021/12/09 10:27:08;;;;;;;11.43;6.90;;;;;;;;;;5048445;28;20528;-72
2021/12/09 10:29:39;;;;;;;9.23;6.13;;;;;;;;;;5030261;28;20455;-72
2021/12/09 10:32:10;;;;;;;10.90;6.90;;;;;;;;;;5020189;28;21154;-74
2021/12/09 10:34:43;;;;;;;9.37;7.07;;;;;;;;;;5028656;28;20462;-74
2021/12/09 10:37:20;;;;;;;11.60;7.30;;;;;;;;;;5029265;28;20950;-76
2021/12/09 10:39:52;;;;;;;11.57;7.27;;;;;;;;;;5031599;28;20434;-73
2021/12/09 10:42:25;;;;;;;9.53;6.30;;;;;;;;;;5027563;28;20443;-75
2021/12/09 10:44:55;;;;;;;12.90;6.60;;;;;;;;;;5029275;28;20443;-73
2021/12/09 10:47:34;;;;;;;11.67;7.30;;;;;;;;;;5032884;28;21030;-74
2021/12/09 10:50:18;;;;;;;12.90;7.43;;;;;;;;;;5025961;28;20934;-74
2021/12/09 10:52:47;;;;;;;16.93;6.60;;;;;;;;;;5031425;28;20830;-74
2021/12/09 10:55:17;;;;;;;9.10;6.80;;;;;;;;;;5030278;28;20465;-74
2021/12/09 10:57:43;;;;;;;10.60;6.63;;;;;;;;;;5029825;28;21809;-73
2021/12/09 11:00:20;;;;;;;10.73;7.40;;;;;;;;;;5028373;28;20421;-73
2021/12/09 11:03:06;;;;;;;9.30;6.43;;;;;;;;;;5038881;28;20818;-74
2021/12/09 11:05:33;;;;;;;11.30;5.97;;;;;;;;;;5033077;28;20453;-75
2021/12/09 11:08:16;;;;;;;10.73;6.77;;;;;;;;;;5031774;28;20427;-73
2021/12/09 11:10:47;;;;;;;11.43;6.60;;;;;;;;;;5025676;28;20445;-73
2021/12/09 11:13:13;;;;;;;11.23;6.47;;;;;;;;;;5017956;28;20874;-77
2021/12/09 11:15:44;;;;;;;13.03;5.97;;;;;;;;;;5027077;28;20438;-73
2021/12/09 11:18:30;;;;;;;9.23;6.43;;;;;;;;;;5028093;28;20188;-74
2021/12/09 11:20:56;;;;;;;8.20;5.73;;;;;;;;;;5029329;28;20471;-73
2021/12/09 11:23:29;;;;;;;13.30;6.27;;;;;;;;;;5026853;28;20914;-75
2021/12/09 11:25:57;;;;;;;12.33;6.37;;;;;;;;;;5032526;28;20171;-72
2021/12/09 11:28:25;;;;;;;10.93;6.43;;;;;;;;;;5030889;28;20441;-73
2021/12/09 11:31:05;;;;;;;6.73;5.27;;;;;;;;;;5032329;28;20467;-72
2021/12/09 11:33:32;;;;;;;13.53;6.30;;;;;;;;;;5030653;28;20459;-73
2021/12/09 11:35:57;;;;;;;12.57;5.87;;;;;;;;;;5034205;28;20474;-73
2021/12/09 11:38:43;;;;;;;12.37;6.20;;;;;;;;;;5035651;28;20438;-74
2021/12/09 11:41:27;;;;;;;24.67;6.00;;;;;;;;;;5029130;28;20207;-74
2021/12/09 11:43:52;;;;;;;11.30;5.63;;;;;;;;;;5039199;28;20520;-75
2021/12/09 11:46:17;;;;;;;11.93;5.90;;;;;;;;;;5037536;28;20418;-73
2021/12/09 11:48:44;;;;;;;11.87;6.00;;;;;;;;;;5031849;28;20195;-73
2021/12/09 11:51:09;;;;;;;11.40;6.00;;;;;;;;;;5030452;28;20205;-74
2021/12/09 11:53:37;;;;;;;10.20;5.83;;;;;;;;;;5032146;28;20454;-74
2021/12/09 11:56:19;;;;;;;12.03;5.67;;;;;;;;;;5027730;28;20580;-74
2021/12/09 11:58:55;;;;;;;13.93;5.83;;;;;;;;;;5028410;28;20780;-74
2021/12/09 12:07:53;;;;;;;9.47;6.13;;;;;;;;;;5031307;28;20905;-73
2021/12/09 12:15:51;;;;;;;11.53;6.27;;;;;;;;;;5030899;28;20449;-75
2021/12/09 12:18:34;;;;;;;11.33;6.30;;;;;;;;;;5028913;28;20505;-74
2021/12/09 12:21:39;;;;;;;17.83;7.80;;;;;;;;;;5022631;28;20790;-72
2021/12/09 12:27:26;;;;;;;15.90;8.60;;;;;;;;;;5025605;28;20424;-73
2021/12/09 12:33:11;;;;;;;15.07;8.13;;;;;;;;;;5029307;28;22071;-71
2021/12/09 12:40:53;;;;;;;14.63;8.93;;;;;;;;;;5026156;28;20210;-73
2021/12/09 12:43:27;;;;;;;16.13;9.47;;;;;;;;;;5032844;28;20449;-71
2021/12/09 12:51:06;;;;;;;18.80;9.50;;;;;;;;;;5032723;28;20438;-73
2021/12/09 12:53:35;;;;;;;15.13;8.67;;;;;;;;;;5050669;28;20450;-72
2021/12/09 12:56:20;;;;;;;17.10;10.20;;;;;;;;;;5027765;28;20245;-72
2021/12/09 12:59:05;;;;;;;17.27;9.83;;;;;;;;;;5027452;28;20430;-71
2021/12/09 13:01:30;;;;;;;14.50;8.23;;;;;;;;;;5043205;28;21066;-74
2021/12/09 13:04:02;;;;;;;13.00;8.47;;;;;;;;;;5028656;28;20483;-72
2021/12/09 13:06:45;;;;;;;13.77;9.10;;;;;;;;;;5029006;28;24189;-72
2021/12/09 13:09:32;;;;;;;16.77;9.30;;;;;;;;;;5027024;28;20634;-73
2021/12/09 13:12:05;;;;;;;20.90;10.53;;;;;;;;;;5029934;28;20430;-73
2021/12/09 13:14:34;;;;;;;20.60;8.63;;;;;;;;;;5027500;28;20500;-71
2021/12/09 13:17:08;;;;;;;12.73;7.67;;;;;;;;;;5027020;28;20877;-72
2021/12/09 13:19:49;;;;;;;14.60;9.80;;;;;;;;;;5029479;28;20433;-71
2021/12/09 13:22:19;;;;;;;14.50;8.90;;;;;;;;;;5025205;28;20527;-73
2021/12/09 13:25:03;;;;;;;24.20;14.73;;;;;;;;;;5029681;28;20457;-73
2021/12/09 13:31:35;;;;;;;13.47;8.10;;;;;;;;;;5027875;28;20799;-73
2021/12/09 13:33:44;;;;;;;13.87;8.50;;;;;;;;;;5019718;28;20442;-73
2021/12/09 13:54:55;;;;;;;11.90;7.20;;;;;;;;;;5029649;28;21005;-74
2021/12/09 13:57:49;;;;;;;11.37;6.63;;;;;;;;;;5024347;28;20526;-75
2021/12/09 14:00:24;;;;;;;13.63;6.80;;;;;;;;;;5023040;28;20204;-73
2021/12/09 14:02:49;;;;;;;15.33;7.80;;;;;;;;;;5029432;28;20432;-74
2021/12/09 14:05:16;;;;;;;10.57;6.80;;;;;;;;;;5028791;28;20461;-72
2021/12/09 14:07:49;;;;;;;17.53;8.07;;;;;;;;;;5030730;28;20426;-73
2021/12/09 14:10:16;;;;;;;18.43;8.60;;;;;;;;;;5028893;28;20490;-76
2021/12/09 14:12:48;;;;;;;15.47;8.50;;;;;;;;;;5027081;28;20950;-72
2021/12/09 14:15:20;;;;;;;13.93;8.07;;;;;;;;;;5026704;28;20542;-74
2021/12/09 14:17:58;;;;;;;11.03;7.10;;;;;;;;;;5024616;28;20419;-75
2021/12/09 14:20:23;;;;;;;11.40;7.07;;;;;;;;;;5029857;28;20458;-72
2021/12/09 14:22:50;;;;;;;17.13;7.17;;;;;;;;;;5028934;28;20437;-73
2021/12/09 14:25:24;;;;;;;15.30;7.40;;;;;;;;;;5028172;28;20208;-75
2021/12/09 14:27:50;;;;;;;13.83;7.77;;;;;;;;;;5025867;28;20960;-73
2021/12/09 14:30:15;;;;;;;14.03;7.60;;;;;;;;;;5031583;28;20438;-74
2021/12/09 14:32:46;;;;;;;13.53;7.50;;;;;;;;;;5029070;28;20278;-73
2021/12/09 14:35:17;;;;;;;10.73;6.80;;;;;;;;;;5028113;28;20227;-73
2021/12/09 14:37:43;;;;;;;14.33;7.90;;;;;;;;;;5026178;28;20429;-73
2021/12/09 14:40:11;;;;;;;18.93;8.17;;;;;;;;;;5026976;28;20487;-74
2021/12/09 14:42:54;;;;;;;11.97;7.20;;;;;;;;;;5028723;28;20180;-72
2021/12/09 14:45:21;;;;;;;14.93;6.87;;;;;;;;;;5028976;28;20458;-73
2021/12/09 14:47:53;;;;;;;17.43;8.00;;;;;;;;;;5029939;28;20942;-73
2021/12/09 14:50:19;;;;;;;15.77;7.40;;;;;;;;;;5028617;28;20435;-73
2021/12/09 14:52:45;;;;;;;13.20;7.20;;;;;;;;;;5022245;28;20569;-72
2021/12/09 14:55:10;;;;;;;13.00;7.03;;;;;;;;;;5028358;28;20346;-74
2021/12/09 14:57:50;;;;;;;10.07;6.63;;;;;;;;;;5025338;28;20923;-73
2021/12/09 15:00:27;;;;;;;15.17;7.37;;;;;;;;;;5027884;28;20266;-73
2021/12/09 15:02:53;;;;;;;14.23;7.23;;;;;;;;;;5028383;28;20413;-74
2021/12/09 15:05:20;;;;;;;10.40;6.20;;;;;;;;;;5028676;28;20557;-75
2021/12/09 15:07:52;;;;;;;9.90;6.03;;;;;;;;;;5023782;28;20930;-74
2021/12/09 15:10:22;;;;;;;11.10;6.80;;;;;;;;;;5033831;28;20456;-74
2021/12/09 15:12:48;;;;;;;9.33;7.20;;;;;;;;;;5031605;28;20964;-74
2021/12/09 15:15:18;;;;;;;12.30;7.07;;;;;;;;;;5034108;28;21046;-74
2021/12/09 15:17:57;;;;;;;12.80;7.40;;;;;;;;;;5028798;28;20914;-73
2021/12/09 15:20:29;;;;;;;13.57;8.00;;;;;;;;;;5032514;28;20462;-75
2021/12/09 15:22:58;;;;;;;13.03;7.60;;;;;;;;;;5033323;28;20419;-75
2021/12/09 15:25:29;;;;;;;10.00;7.57;;;;;;;;;;5031601;28;20434;-73
2021/12/09 15:28:03;;;;;;;12.30;6.90;;;;;;;;;;5030133;28;20414;-74
2021/12/09 15:30:47;;;;;;;15.37;7.37;;;;;;;;;;5028149;28;20571;-72
2021/12/09 15:33:14;;;;;;;15.70;6.57;;;;;;;;;;5031875;28;20939;-72
2021/12/09 15:35:40;;;;;;;16.00;7.37;;;;;;;;;;5033046;28;20446;-73
2021/12/09 15:38:16;;;;;;;13.50;7.10;;;;;;;;;;5033555;28;20916;-73